Loisir ou Compétition : Rejoignez un Club de la Fédération

Résultats

RELAIS DAMES CHAMPIONNATS DE FRANCE DES CLUBS 1ère DIVISION

GERARDMER

FS Dames

Jury de Compétition

Délégué Technique :
 
D.T. Adjoint :
 
Dir. Epreuve :
 

Caractéristiques de la Piste

Piste :
Site de Replis
Distance :
3-5-5 km
Point Haut :
 
Point Bas :
 
Montée Tot. :
 
Montée Max. :
 
Homologation :
-1

Pénalité Appliquée :
 
Coefficient :
 

Catégorie :
MIN/SE
Style :
C
Clt Dos Clt/Cat Code An Nom Prénom Com Club Temps Ecart Points
Classés
1 1/CAD FFS2643977 1997 LABROSSE MARIE MB SCNP ROCHOIS 00:00.0
1 1/SEN FFS2189504 1988 BARTHELEMY LAURE MB EMHM/ROCHOIS 00:00.0
1 1/MIN FFS2649316 1998 VULLIET SOLENE MB SCNP ROCHOIS 00:00.0
2 1/SEN FFS1341311 1990 BUILLET MARION SA CS SAISIES 00:00.0
2 1/MIN FFS2620847 1998 CHAMIOT MAITRAL LAURA SA CS SAISIES 00:00.0
2 1/CAD FFS2356377 1996 SIMON JULIA SA CS SAISIES 00:00.0
3 1/MIN FFS2637567 1999 SIMONNEAU SOLEA DA SA MEAUDRAIS 00:00.0
3 1/CAD FFS2626100 1997 LOCATELLI EVA DA SA MEAUDRAIS 00:00.0
3 1/SEN FFS2259863 1989 LOCATELLI MANON DA SA MEAUDRAIS 00:00.0
4 1/CAD FFS2324410 1996 BATTENDIER EMILY MB CS CHAMONIX 00:00.0
4 1/MIN FFS2649462 1998 COUSTOULIN MELISSA MB CS CHAMONIX 00:00.0
4 1/JUN FFS2353920 1992 LATUILLIERE ENORA MB CS CHAMONIX 00:00.0
5 1/CAD FFS2650595 1996 GRIBOVAL CHARLOTTE DA CS VILLARD 00:00.0
5 1/JUN FFS2618811 1993 DEVAUX JULIA DA CS VILLARD 00:00.0
5 1/MIN FFS2632250 1998 DUCORDEAU JULIETTE DA CS VILLARD 00:00.0
6 1/CAD FFS2626013 1997 GREGOIRE MARIE MV VAGNEY ROCHE 00:00.0
6 1/SEN FFS1492442 1974 VAXELAIRE PIERREL ANNICK MV VAGNEY ROCHE 00:00.0
6 1/MIN FFS2632009 1998 CUNAT AMELIE MV VAGNEY ROCHE 00:00.0
7 1/MIN FFS2649041 1998 QUINTIN LENA MB SC GD BORNAN 00:00.0
7 1/CAD FFS2637963 1996 PERRILLAT BOTTONET JUSTIN MB SC GD BORNAN 00:00.0
7 1/JUN FFS2613211 1992 HUDRY CLERGEON GAELLE MB SC GD BORNAN 00:00.0
8 1/MIN FFS2644726 1999 RICHON LOUISE SA CS LA FECLAZ 00:00.0
8 1/JUN FFS2613156 1993 VARCIN COLINE SA CS LA FECLAZ 00:00.0
8 1/CAD FFS2631420 1996 HOURS BERANGERE SA CS LA FECLAZ 00:00.0
9 1/MIN FFS2650507 1999 CONSTANT ANAIS SA SC ARECHES 00:00.0
9 1/CAD FFS2601838 1996 CAMOIN CECILE SA SC ARECHES 00:00.0
9 1/SEN FFS2326947 1990 TASSION LAURE SA SC ARECHES 00:00.0
10 1/MIN FFS2650463 1998 TRIBOULET MARGOT AP ES VALLOUISE 00:00.0
10 1/JUN FFS2289281 1992 MONTIGNY SIGRID AP ES VALLOUISE 00:00.0
10 1/CAD FFS2638906 1997 GIRAUD LAURIE AP ES VALLOUISE 00:00.0
11 1/CAD FFS2632378 1997 LAFFONT DEBORAH DA VERCORS SKF 00:00.0
11 1/MIN FFS2643373 1999 BARTHELEMY ANOUK DA VERCORS SKF 00:00.0
11 1/SEN FFS2259679 1985 BRETON CLAIRE DA VERCORS SKF 00:00.0
12 1/SEN FFS2601614 1990 VIGNERON FLORIE MB CS MEGEVE 00:00.0
12 1/MIN FFS2633752 1998 ZAMPIN VIOLETTE MB CS MEGEVE 00:00.0
12 1/CAD FFS2624204 1996 HEDELINE LEA MB CS MEGEVE 00:00.0
13 1/MIN FFS2655089 1999 VISTE NAIS MB VILLARD/BOEG 00:00.0
13 1/JEUN FFS2633735 1995 DAMIANI LEA MB VILLARD/BOEG 00:00.0
13 1/CAD FFS2637859 1996 BENTZ CORALIE MB VILLARD/BOEG 00:00.0
14 1/SEN FFS940675 1982 VINA EMILIE MB PRAZ LYS-SOM 00:00.0
14 1/MIN FFS2653166 1998 MAURE MATHILDE MB PRAZ LYS-SOM 00:00.0
14 1/CAD FFS2643437 1997 ROUSSET CHLOE MB PRAZ LYS-SOM 00:00.0
15 1/SEN FFS2265148 1989 SIMILLE MANON SA SC BOZEL 00:00.0
15 1/MIN FFS2637789 1999 CHEVALLIER CURT MELANIE SA SC BOZEL 00:00.0
15 1/CAD FFS2632111 1996 MATHELET ANGELIQUE SA SC BOZEL 00:00.0
16 1/MIN FFS2649036 1998 PESSEY LOTUS MB SC GD BORNAN 00:00.0
16 1/CAD FFS2637958 1996 AVRILLON ANAELLE MB SC GD BORNAN 00:00.0
16 1/JUN FFS2613215 1992 PESSEY IRIS MB SC GD BORNAN 00:00.0
17 1/MIN FFS2645570 1998 GRIBOVAL MANON DA CS VILLARD 00:00.0
17 1/CAD FFS2623099 1996 CLAUSTRE CAROLINE DA CS VILLARD 00:00.0
17 1/JUN FFS2615048 1993 MADARY LISE DA CS VILLARD 00:00.0
18 1/CAD FFS2628147 1996 FERRAND LAURA SA CS LA FECLAZ 00:00.0
18 1/MIN FFS2649507 1998 LAMBERT JENNIFER SA CS LA FECLAZ 00:00.0
18 1/SEN FFS740074 1982 BOURGEOIS PIN ELODIE SA CS LA FECLAZ 00:00.0
19 1/MIN FFS2644748 1998 TOURNIER CLARA MJ CSR PONTARLI 00:00.0
19 1/CAD FFS2647377 1996 LAURENCE CLEMENTINE MJ CSR PONTARLI 00:00.0
19 1/SEN FFS2261239 1986 FAIVRE PICON ANOUK MJ EMHM/PONTARL 00:00.0
20 1/CAD FFS2637532 1996 KUBICKI GAELLE MV SC RANSPACH 00:00.0
20 1/SEN FFS1433205 1974 LAURENT PHILIPPOT KARINE MV EMHM/RANSPAC 00:00.0
20 1/MIN FFS2660054 1999 ZEKKOUT MANON MV SC RANSPACH 00:00.0
21 1/SEN FFS2600933 1990 DEWAELE MARINE MB CS CHAMONIX 00:00.0
21 1/MIN FFS2629055 1999 CLEAVER JADE MB CS CHAMONIX 00:00.0
21 1/CAD FFS2643706 1997 TERMOZ LISELOTTE MB CS CHAMONIX 00:00.0
22 1/MIN FFS2658992 1999 ROBBERSE LISA CLAUDIE MB CS CHAMONIX 00:00.0
22 1/JUN FFS2614070 1992 ANSELMO CINDELL MB CS CHAMONIX 00:00.0
22 1/CAD FFS2637357 1996 LE NEVE LAURETTE MB CS CHAMONIX 00:00.0
23 1/JUN FFS2600507 1992 THOMAS CLAUDIE MV GERARDMER SN 00:00.0
23 1/MIN FFS2643988 1998 DE NARDIN ELISE MV GERARDMER SN 00:00.0
23 1/CAD FFS2654562 1997 PICART MANUELA MV GERARDMER SN 00:00.0
24 1/CAD FFS2639197 1997 CHABRE MANON AP GAP-BAYARD 00:00.0
24 1/MIN FFS2658558 1999 TOURTET LAURA AP GAP-BAYARD 00:00.0
24 1/JEUN FFS2604396 1994 MARSEILLE LISE AP GAP-BAYARD 00:00.0
25 1/CAD FFS2648948 1997 CREUZOT SARAH MV H.M.S.N. 00:00.0
25 1/SEN FFS2266678 1991 COLIN MARION MV H.M.S.N. 00:00.0
25 1/MIN FFS2662760 1999 CREUZOT MANON MV H.M.S.N. 00:00.0
26 1/SEN FFS2353782 1990 MOUILLESEAUX LUCILE MB PRAZ LYS-SOM 00:00.0
26 1/CAD FFS2643434 1997 MOGEON ELISE MB PRAZ LYS-SOM 00:00.0
26 1/MIN FFS2649723 1998 BETEND JULIE MB PRAZ LYS-SOM 00:00.0
27 1/CAD FFS2638907 1997 GROS CECILE AP ES VALLOUISE 00:00.0
27 1/JEUN FFS2626357 1995 GROS EMILIE AP ES VALLOUISE 00:00.0
27 1/MIN FFS2638905 1999 FAVRE SOURZAC LILI AP ES VALLOUISE 00:00.0
28 1/MIN FFS2644377 1998 CHENAL CLEMENCE SA SC PEISEY VA 00:00.0
28 1/SEN FFS2189291 1986 ROUGEOT MARINE SA SC PEISEY VA 00:00.0
28 1/CAD FFS2660475 1996 VIELLE MARCHISET OPHELIE SA SC PEISEY VA 00:00.0
29 1/MIN FFS2654454 1998 GRUNDRICH JULIETTE DA SN CHARTROUS 00:00.0
29 1/MIN FFS2654456 1998 CHALLAMEL MARINE DA SN CHARTROUS 00:00.0
29 1/SEN FFS2351524 1990 CHARLES MARION DA SN CHARTROUS 00:00.0
30 1/CAD FFS2648950 1997 PARISOT CLARA MJ OLYMP MT DOR 00:00.0
30 1/MIN FFS2654471 1998 JEANMONNOT LAURENT LOU MJ OLYMP MT DOR 00:00.0
30 1/SEN FFS2600221 1990 THIONNET FLORIE MJ OLYMP MT DOR 00:00.0
31 1/JEUN FFS2620265 1995 MOUGEL ESTELLE MV LA BRESSAUDE 00:00.0
31 1/CAD FFS2634004 1997 PERRY LUCIE MV LA BRESSAUDE 00:00.0
31 1/MIN FFS2663320 1999 RICHARD LUCE MV LA BRESSAUDE 00:00.0
32 1/JEUN FFS2617831 1994 BEROUD TINA DA US AUTRANNAI 00:00.0
32 1/CAD FFS2620619 1997 BULLE EMILIE DA US AUTRANNAI 00:00.0
32 1/MIN FFS2634009 1999 BONNIN SASKIA DA US AUTRANNAI 00:00.0
33 1/JUN FFS2616073 1992 MEYER AUDE DA US AUTRANNAI 00:00.0
33 1/MIN FFS2644575 1999 EYBERT MATHILDE DA US AUTRANNAI 00:00.0
33 1/CAD FFS2620164 1996 GAILLARD LUMI DA US AUTRANNAI 00:00.0
34 1/SEN FFS2266443 1991 ARNOULD ALINE MV SC RANSPACH 00:00.0
34 1/MIN FFS2660053 1999 HANS MATHILDE MV SC RANSPACH 00:00.0
34 1/CAD FFS2648768 1997 FOUBERT LAURE MV SC RANSPACH 00:00.0
35 1/JEUN FFS2619002 1995 EKSZTEROWICZ ANAIS MB DRAGONS ANNY 00:00.0
35 1/CAD FFS2643822 1997 LE GOUIL LYDIE MB DRAGONS ANNY 00:00.0
35 1/MIN FFS2648813 1998 MULLER EMMA MB DRAGONS ANNY 00:00.0
36 1/CAD FFS2639238 1996 MOUGEL MATHILDE MV LA BRESSAUDE 00:00.0
36 1/SEN FFS2232986 1987 CUNY ANNE LAURE MV LA BRESSAUDE 00:00.0
36 1/MIN FFS2654554 1999 MOUGEL AUDREY MV LA BRESSAUDE 00:00.0
37 1/MIN FFS2633017 1999 GABELLI LOLA MJ CSR PONTARLI 00:00.0
37 1/JEUN FFS2633077 1994 BELIARD CLEMENCE MJ CSR PONTARLI 00:00.0
37 1/CAD FFS2638487 1996 CLAUDEL LUCIE MJ CSR PONTARLI 00:00.0
38 1/MIN FFS2648892 1999 FAVIER JULIA DA SNGR OISANS 00:00.0
38 1/CAD FFS2640937 1997 MENDEZ LOPEZ MANUELLA DA SNGR OISANS 00:00.0
38 1/SEN FFS2226014 1987 MONDON ELSA DA SNGR OISANS 00:00.0
39 1/CAD FFS2625549 1996 GUDIN MALORY LY CS VALROMEY 00:00.0
39 1/MIN FFS2637305 1999 GUDIN GLADYS LY CS VALROMEY 00:00.0
39 1/SEN FFS810517 1966 BURLET DELPHINE LY CS VALROMEY 00:00.0
40 1/CAD FFS2639677 1996 VUITTON CHLOE MJ SC FRASNE DR 00:00.0
40 1/MIN FFS2653651 1998 VUILLEMIN PAULINE MJ SC FRASNE DR 00:00.0
40 1/JEUN FFS2633850 1995 RAVIER PAULINE MJ SC FRASNE DR 00:00.0
41 1/MIN FFS2654459 1999 CADDOUX CAMILLE MB CHABLAIS NOR 00:00.0
41 1/CAD FFS2647453 1997 BAUDRAND LUANA MB CHABLAIS NOR 00:00.0
41 1/SEN FFS2649683 1972 BENED VALERIE MB CHABLAIS NOR 00:00.0
42 1/MIN FFS2656145 1999 CHAUVIN CHLOE AP GAP-BAYARD 00:00.0
42 1/JEUN FFS2642465 1995 MARSEILLE CLARA AP GAP-BAYARD 00:00.0
42 1/CAD FFS2615397 1996 VANDERWEYEN LAURA AP GAP-BAYARD 00:00.0
43 1/CAD FFS2638020 1997 PETERSCHMITT LIA DA GUC GRENOBLE 00:00.0
43 1/JUN FFS2632016 1993 ROGER TIPHAINE DA GUC GRENOBLE 00:00.0
43 1/MIN FFS2636373 1998 TISON LOUISE DA GUC GRENOBLE 00:00.0